sensor_id;sensor_type;location;lat;lon;timestamp;temperature;humidity
10046;DHT22;5063;50.878;4.742;2023-06-05T00:01:41;14.20;99.90
10046;DHT22;5063;50.878;4.742;2023-06-05T00:04:08;14.20;99.90
10046;DHT22;5063;50.878;4.742;2023-06-05T00:06:33;14.10;99.90
10046;DHT22;5063;50.878;4.742;2023-06-05T00:09:00;14.10;99.90
10046;DHT22;5063;50.878;4.742;2023-06-05T00:11:26;14.10;99.90
10046;DHT22;5063;50.878;4.742;2023-06-05T00:13:52;14.00;99.90
10046;DHT22;5063;50.878;4.742;2023-06-05T00:16:18;14.00;99.90
10046;DHT22;5063;50.878;4.742;2023-06-05T00:18:44;14.00;99.90
10046;DHT22;5063;50.878;4.742;2023-06-05T00:21:12;14.00;99.90
10046;DHT22;5063;50.878;4.742;2023-06-05T00:23:38;13.90;99.90
10046;DHT22;5063;50.878;4.742;2023-06-05T00:26:04;13.90;99.90
10046;DHT22;5063;50.878;4.742;2023-06-05T00:28:29;13.90;99.90
10046;DHT22;5063;50.878;4.742;2023-06-05T00:30:55;13.90;99.90
10046;DHT22;5063;50.878;4.742;2023-06-05T00:33:21;13.80;99.90
10046;DHT22;5063;50.878;4.742;2023-06-05T00:35:47;13.80;99.90
10046;DHT22;5063;50.878;4.742;2023-06-05T00:38:12;13.80;99.90
10046;DHT22;5063;50.878;4.742;2023-06-05T00:40:38;13.80;99.90
10046;DHT22;5063;50.878;4.742;2023-06-05T00:43:04;13.80;99.90
10046;DHT22;5063;50.878;4.742;2023-06-05T00:45:31;13.70;99.90
10046;DHT22;5063;50.878;4.742;2023-06-05T00:47:57;13.70;99.90
10046;DHT22;5063;50.878;4.742;2023-06-05T00:50:24;13.70;99.90
10046;DHT22;5063;50.878;4.742;2023-06-05T00:52:51;13.70;99.90
10046;DHT22;5063;50.878;4.742;2023-06-05T00:55:17;13.70;99.90
10046;DHT22;5063;50.878;4.742;2023-06-05T00:57:44;13.60;99.90
10046;DHT22;5063;50.878;4.742;2023-06-05T01:00:10;13.60;99.90
10046;DHT22;5063;50.878;4.742;2023-06-05T01:02:39;13.60;99.90
10046;DHT22;5063;50.878;4.742;2023-06-05T01:05:06;13.60;99.90
10046;DHT22;5063;50.878;4.742;2023-06-05T01:07:33;13.60;99.90
10046;DHT22;5063;50.878;4.742;2023-06-05T01:10:06;13.60;99.90
10046;DHT22;5063;50.878;4.742;2023-06-05T01:13:23;13.60;99.90
10046;DHT22;5063;50.878;4.742;2023-06-05T01:15:51;13.60;99.90
10046;DHT22;5063;50.878;4.742;2023-06-05T01:18:19;13.40;99.90
10046;DHT22;5063;50.878;4.742;2023-06-05T01:20:45;13.40;99.90
10046;DHT22;5063;50.878;4.742;2023-06-05T01:23:10;13.40;99.90
10046;DHT22;5063;50.878;4.742;2023-06-05T01:25:36;13.30;99.90
10046;DHT22;5063;50.878;4.742;2023-06-05T01:28:10;13.30;99.90
10046;DHT22;5063;50.878;4.742;2023-06-05T01:33:17;13.20;99.90
10046;DHT22;5063;50.878;4.742;2023-06-05T01:35:46;13.10;99.90
10046;DHT22;5063;50.878;4.742;2023-06-05T01:38:17;13.00;99.90
10046;DHT22;5063;50.878;4.742;2023-06-05T01:40:44;12.90;99.90
10046;DHT22;5063;50.878;4.742;2023-06-05T01:43:11;12.80;99.90
10046;DHT22;5063;50.878;4.742;2023-06-05T01:45:38;12.80;99.90
10046;DHT22;5063;50.878;4.742;2023-06-05T01:48:07;12.70;99.90
10046;DHT22;5063;50.878;4.742;2023-06-05T01:50:36;12.70;99.90
10046;DHT22;5063;50.878;4.742;2023-06-05T01:53:04;12.60;99.90
10046;DHT22;5063;50.878;4.742;2023-06-05T01:55:30;12.60;99.90
10046;DHT22;5063;50.878;4.742;2023-06-05T01:57:56;12.50;99.90
10046;DHT22;5063;50.878;4.742;2023-06-05T02:00:22;12.50;99.90
10046;DHT22;5063;50.878;4.742;2023-06-05T02:02:49;12.50;99.90
10046;DHT22;5063;50.878;4.742;2023-06-05T02:05:17;12.40;99.90
10046;DHT22;5063;50.878;4.742;2023-06-05T02:07:48;12.40;99.90
10046;DHT22;5063;50.878;4.742;2023-06-05T02:10:21;12.40;99.90
10046;DHT22;5063;50.878;4.742;2023-06-05T02:12:47;12.40;99.90
10046;DHT22;5063;50.878;4.742;2023-06-05T02:15:13;12.40;99.90
10046;DHT22;5063;50.878;4.742;2023-06-05T02:17:41;12.30;99.90
10046;DHT22;5063;50.878;4.742;2023-06-05T02:20:23;12.30;99.90
10046;DHT22;5063;50.878;4.742;2023-06-05T02:22:49;12.30;99.90
10046;DHT22;5063;50.878;4.742;2023-06-05T02:25:18;12.20;99.90
10046;DHT22;5063;50.878;4.742;2023-06-05T02:27:44;12.20;99.90
10046;DHT22;5063;50.878;4.742;2023-06-05T02:30:10;12.10;99.90
10046;DHT22;5063;50.878;4.742;2023-06-05T02:32:37;12.00;99.90
10046;DHT22;5063;50.878;4.742;2023-06-05T02:35:08;12.00;99.90
10046;DHT22;5063;50.878;4.742;2023-06-05T02:37:34;12.00;99.90
10046;DHT22;5063;50.878;4.742;2023-06-05T02:40:06;12.00;99.90
10046;DHT22;5063;50.878;4.742;2023-06-05T02:42:36;12.00;99.90
10046;DHT22;5063;50.878;4.742;2023-06-05T02:45:02;12.00;99.90
10046;DHT22;5063;50.878;4.742;2023-06-05T02:47:29;12.10;99.90
10046;DHT22;5063;50.878;4.742;2023-06-05T02:49:56;12.00;99.90
10046;DHT22;5063;50.878;4.742;2023-06-05T02:52:22;12.00;99.90
10046;DHT22;5063;50.878;4.742;2023-06-05T02:54:48;11.90;99.90
10046;DHT22;5063;50.878;4.742;2023-06-05T02:57:13;11.90;99.90
10046;DHT22;5063;50.878;4.742;2023-06-05T02:59:41;11.80;99.90
10046;DHT22;5063;50.878;4.742;2023-06-05T03:02:07;11.80;99.90
10046;DHT22;5063;50.878;4.742;2023-06-05T03:04:33;11.80;99.90
10046;DHT22;5063;50.878;4.742;2023-06-05T03:06:59;11.70;99.90
10046;DHT22;5063;50.878;4.742;2023-06-05T03:09:32;11.70;99.90
10046;DHT22;5063;50.878;4.742;2023-06-05T03:11:58;11.70;99.90
10046;DHT22;5063;50.878;4.742;2023-06-05T03:14:24;11.60;99.90
10046;DHT22;5063;50.878;4.742;2023-06-05T03:16:52;11.60;99.90
10046;DHT22;5063;50.878;4.742;2023-06-05T03:19:19;11.50;99.90
10046;DHT22;5063;50.878;4.742;2023-06-05T03:21:45;11.40;99.90
10046;DHT22;5063;50.878;4.742;2023-06-05T03:24:11;11.50;99.90
10046;DHT22;5063;50.878;4.742;2023-06-05T03:26:41;11.50;99.90
10046;DHT22;5063;50.878;4.742;2023-06-05T03:29:09;11.40;99.90
10046;DHT22;5063;50.878;4.742;2023-06-05T03:31:35;11.40;99.90
10046;DHT22;5063;50.878;4.742;2023-06-05T03:34:01;11.40;99.90
10046;DHT22;5063;50.878;4.742;2023-06-05T03:36:29;11.40;99.90
10046;DHT22;5063;50.878;4.742;2023-06-05T03:38:56;11.30;99.90
10046;DHT22;5063;50.878;4.742;2023-06-05T03:41:22;11.30;99.90
10046;DHT22;5063;50.878;4.742;2023-06-05T03:43:48;11.40;99.90
10046;DHT22;5063;50.878;4.742;2023-06-05T03:46:17;11.40;99.90
10046;DHT22;5063;50.878;4.742;2023-06-05T03:48:47;11.40;99.90
10046;DHT22;5063;50.878;4.742;2023-06-05T03:51:15;11.40;99.90
10046;DHT22;5063;50.878;4.742;2023-06-05T03:53:46;11.50;99.90
10046;DHT22;5063;50.878;4.742;2023-06-05T03:56:20;11.40;99.90
10046;DHT22;5063;50.878;4.742;2023-06-05T03:58:47;11.50;99.90
10046;DHT22;5063;50.878;4.742;2023-06-05T04:01:14;11.50;99.90
10046;DHT22;5063;50.878;4.742;2023-06-05T04:03:40;11.50;99.90
10046;DHT22;5063;50.878;4.742;2023-06-05T04:06:05;11.50;99.90
10046;DHT22;5063;50.878;4.742;2023-06-05T04:08:31;11.60;99.90
10046;DHT22;5063;50.878;4.742;2023-06-05T04:10:58;11.60;99.90
10046;DHT22;5063;50.878;4.742;2023-06-05T04:13:23;11.70;99.90
10046;DHT22;5063;50.878;4.742;2023-06-05T04:15:50;11.70;99.90
10046;DHT22;5063;50.878;4.742;2023-06-05T04:18:16;11.70;99.90
10046;DHT22;5063;50.878;4.742;2023-06-05T04:20:41;11.80;99.90
10046;DHT22;5063;50.878;4.742;2023-06-05T04:23:08;11.80;99.90
10046;DHT22;5063;50.878;4.742;2023-06-05T04:25:33;11.90;99.90
10046;DHT22;5063;50.878;4.742;2023-06-05T04:27:59;11.90;99.90
10046;DHT22;5063;50.878;4.742;2023-06-05T04:30:25;12.00;99.90
10046;DHT22;5063;50.878;4.742;2023-06-05T04:32:51;12.00;99.90
10046;DHT22;5063;50.878;4.742;2023-06-05T04:35:22;12.10;99.90
10046;DHT22;5063;50.878;4.742;2023-06-05T04:37:49;12.10;99.90
10046;DHT22;5063;50.878;4.742;2023-06-05T04:40:16;12.20;99.90
10046;DHT22;5063;50.878;4.742;2023-06-05T04:42:43;12.30;99.90
10046;DHT22;5063;50.878;4.742;2023-06-05T04:45:10;12.30;99.90
10046;DHT22;5063;50.878;4.742;2023-06-05T04:47:36;12.40;99.90
10046;DHT22;5063;50.878;4.742;2023-06-05T04:50:04;12.40;99.90
10046;DHT22;5063;50.878;4.742;2023-06-05T04:52:31;12.60;99.90
10046;DHT22;5063;50.878;4.742;2023-06-05T04:54:58;12.70;99.90
10046;DHT22;5063;50.878;4.742;2023-06-05T04:57:28;12.90;99.90
10046;DHT22;5063;50.878;4.742;2023-06-05T04:59:55;13.30;99.90
10046;DHT22;5063;50.878;4.742;2023-06-05T05:02:22;14.80;99.90
10046;DHT22;5063;50.878;4.742;2023-06-05T05:04:48;16.40;99.90
10046;DHT22;5063;50.878;4.742;2023-06-05T05:07:14;17.90;99.90
10046;DHT22;5063;50.878;4.742;2023-06-05T05:09:46;19.40;99.90
10046;DHT22;5063;50.878;4.742;2023-06-05T05:12:12;20.40;99.90
10046;DHT22;5063;50.878;4.742;2023-06-05T05:14:37;21.20;99.90
10046;DHT22;5063;50.878;4.742;2023-06-05T05:17:03;21.80;99.90
10046;DHT22;5063;50.878;4.742;2023-06-05T05:19:29;22.30;99.90
10046;DHT22;5063;50.878;4.742;2023-06-05T05:21:55;21.90;99.90
10046;DHT22;5063;50.878;4.742;2023-06-05T05:24:21;22.00;99.90
10046;DHT22;5063;50.878;4.742;2023-06-05T05:26:49;22.20;99.90
10046;DHT22;5063;50.878;4.742;2023-06-05T05:29:15;22.50;99.90
10046;DHT22;5063;50.878;4.742;2023-06-05T05:31:41;22.90;99.90
10046;DHT22;5063;50.878;4.742;2023-06-05T05:34:07;23.40;99.90
10046;DHT22;5063;50.878;4.742;2023-06-05T05:36:32;23.60;99.90
10046;DHT22;5063;50.878;4.742;2023-06-05T05:38:59;23.60;99.90
10046;DHT22;5063;50.878;4.742;2023-06-05T05:41:25;23.50;99.90
10046;DHT22;5063;50.878;4.742;2023-06-05T05:43:52;23.70;99.90
10046;DHT22;5063;50.878;4.742;2023-06-05T05:46:17;23.80;99.90
10046;DHT22;5063;50.878;4.742;2023-06-05T05:48:43;24.50;99.90
10046;DHT22;5063;50.878;4.742;2023-06-05T05:51:09;24.30;99.90
10046;DHT22;5063;50.878;4.742;2023-06-05T05:53:35;23.60;99.90
10046;DHT22;5063;50.878;4.742;2023-06-05T05:56:01;23.90;99.90
10046;DHT22;5063;50.878;4.742;2023-06-05T05:58:29;24.40;99.90
10046;DHT22;5063;50.878;4.742;2023-06-05T06:00:55;24.20;99.90
10046;DHT22;5063;50.878;4.742;2023-06-05T06:03:21;24.20;99.90
10046;DHT22;5063;50.878;4.742;2023-06-05T06:05:47;24.50;99.90
10046;DHT22;5063;50.878;4.742;2023-06-05T06:08:13;25.30;99.90
10046;DHT22;5063;50.878;4.742;2023-06-05T06:10:40;26.10;99.90
10046;DHT22;5063;50.878;4.742;2023-06-05T06:13:06;26.10;99.30
10046;DHT22;5063;50.878;4.742;2023-06-05T06:15:32;26.00;98.60
10046;DHT22;5063;50.878;4.742;2023-06-05T06:17:58;26.50;97.70
10046;DHT22;5063;50.878;4.742;2023-06-05T06:20:28;26.70;95.80
10046;DHT22;5063;50.878;4.742;2023-06-05T06:22:54;26.30;94.80
10046;DHT22;5063;50.878;4.742;2023-06-05T06:25:21;26.80;94.00
10046;DHT22;5063;50.878;4.742;2023-06-05T06:27:47;27.10;94.10
10046;DHT22;5063;50.878;4.742;2023-06-05T06:30:19;27.70;92.70
10046;DHT22;5063;50.878;4.742;2023-06-05T06:32:45;26.70;92.70
10046;DHT22;5063;50.878;4.742;2023-06-05T06:35:11;27.30;92.70
10046;DHT22;5063;50.878;4.742;2023-06-05T06:37:40;27.70;91.00
10046;DHT22;5063;50.878;4.742;2023-06-05T06:40:06;27.60;90.90
10046;DHT22;5063;50.878;4.742;2023-06-05T06:42:37;26.80;91.00
10046;DHT22;5063;50.878;4.742;2023-06-05T06:45:03;26.20;91.10
10046;DHT22;5063;50.878;4.742;2023-06-05T06:47:30;25.80;92.00
10046;DHT22;5063;50.878;4.742;2023-06-05T06:49:55;26.60;92.30
10046;DHT22;5063;50.878;4.742;2023-06-05T06:52:22;27.40;91.50
10046;DHT22;5063;50.878;4.742;2023-06-05T06:54:49;26.80;90.80
10046;DHT22;5063;50.878;4.742;2023-06-05T06:57:15;26.50;91.90
10046;DHT22;5063;50.878;4.742;2023-06-05T06:59:41;27.50;90.70
10046;DHT22;5063;50.878;4.742;2023-06-05T07:02:17;27.30;90.60
10046;DHT22;5063;50.878;4.742;2023-06-05T07:04:44;27.80;90.10
10046;DHT22;5063;50.878;4.742;2023-06-05T07:07:15;28.30;88.50
10046;DHT22;5063;50.878;4.742;2023-06-05T07:09:42;28.20;87.60
10046;DHT22;5063;50.878;4.742;2023-06-05T07:12:13;28.30;86.90
10046;DHT22;5063;50.878;4.742;2023-06-05T07:14:39;26.90;88.70
10046;DHT22;5063;50.878;4.742;2023-06-05T07:17:06;26.50;90.20
10046;DHT22;5063;50.878;4.742;2023-06-05T07:19:33;27.20;90.30
10046;DHT22;5063;50.878;4.742;2023-06-05T07:22:00;26.20;89.60
10046;DHT22;5063;50.878;4.742;2023-06-05T07:24:28;26.70;90.30
10046;DHT22;5063;50.878;4.742;2023-06-05T07:26:55;26.50;90.20
10046;DHT22;5063;50.878;4.742;2023-06-05T07:29:22;26.10;90.00
10046;DHT22;5063;50.878;4.742;2023-06-05T07:31:51;26.40;90.80
10046;DHT22;5063;50.878;4.742;2023-06-05T07:34:18;27.30;90.00
10046;DHT22;5063;50.878;4.742;2023-06-05T07:36:45;26.80;89.80
10046;DHT22;5063;50.878;4.742;2023-06-05T07:39:12;27.10;90.10
10046;DHT22;5063;50.878;4.742;2023-06-05T07:41:38;27.40;89.20
10046;DHT22;5063;50.878;4.742;2023-06-05T07:44:09;26.70;90.00
10046;DHT22;5063;50.878;4.742;2023-06-05T07:46:36;26.10;90.20
10046;DHT22;5063;50.878;4.742;2023-06-05T07:49:02;26.30;91.30
10046;DHT22;5063;50.878;4.742;2023-06-05T07:51:28;26.60;90.70
10046;DHT22;5063;50.878;4.742;2023-06-05T07:53:54;26.90;90.90
10046;DHT22;5063;50.878;4.742;2023-06-05T07:56:20;27.60;89.30
10046;DHT22;5063;50.878;4.742;2023-06-05T07:58:49;27.20;88.60
10046;DHT22;5063;50.878;4.742;2023-06-05T08:01:17;27.80;88.60
10046;DHT22;5063;50.878;4.742;2023-06-05T08:03:43;28.20;86.90
10046;DHT22;5063;50.878;4.742;2023-06-05T08:06:10;27.90;87.40
10046;DHT22;5063;50.878;4.742;2023-06-05T08:08:36;27.90;86.70
10046;DHT22;5063;50.878;4.742;2023-06-05T08:11:02;28.30;84.80
10046;DHT22;5063;50.878;4.742;2023-06-05T08:13:27;27.00;86.50
10046;DHT22;5063;50.878;4.742;2023-06-05T08:15:53;27.60;88.10
10046;DHT22;5063;50.878;4.742;2023-06-05T08:18:19;28.40;85.30
10046;DHT22;5063;50.878;4.742;2023-06-05T08:20:46;28.90;83.60
10046;DHT22;5063;50.878;4.742;2023-06-05T08:23:12;27.00;85.70
10046;DHT22;5063;50.878;4.742;2023-06-05T08:25:39;26.80;89.10
10046;DHT22;5063;50.878;4.742;2023-06-05T08:28:04;27.40;88.10
10046;DHT22;5063;50.878;4.742;2023-06-05T08:30:30;27.70;87.90
10046;DHT22;5063;50.878;4.742;2023-06-05T08:32:56;26.80;86.70
10046;DHT22;5063;50.878;4.742;2023-06-05T08:35:21;26.90;88.50
10046;DHT22;5063;50.878;4.742;2023-06-05T08:37:47;27.80;86.60
10046;DHT22;5063;50.878;4.742;2023-06-05T08:40:14;27.80;85.50
10046;DHT22;5063;50.878;4.742;2023-06-05T08:42:40;28.70;85.70
10046;DHT22;5063;50.878;4.742;2023-06-05T08:45:07;29.50;85.00
10046;DHT22;5063;50.878;4.742;2023-06-05T08:47:36;29.70;80.00
10046;DHT22;5063;50.878;4.742;2023-06-05T08:50:05;29.30;81.50
10046;DHT22;5063;50.878;4.742;2023-06-05T08:52:37;29.20;82.00
10046;DHT22;5063;50.878;4.742;2023-06-05T08:55:04;28.70;81.60
10046;DHT22;5063;50.878;4.742;2023-06-05T08:57:40;28.50;81.20
10046;DHT22;5063;50.878;4.742;2023-06-05T09:00:08;28.30;83.70
10046;DHT22;5063;50.878;4.742;2023-06-05T09:02:40;28.40;82.50
10046;DHT22;5063;50.878;4.742;2023-06-05T09:05:09;28.10;82.80
10046;DHT22;5063;50.878;4.742;2023-06-05T09:07:35;27.40;82.80
10046;DHT22;5063;50.878;4.742;2023-06-05T09:10:03;27.20;84.80
10046;DHT22;5063;50.878;4.742;2023-06-05T09:12:29;27.00;84.10
10046;DHT22;5063;50.878;4.742;2023-06-05T09:14:55;27.20;84.20
10046;DHT22;5063;50.878;4.742;2023-06-05T09:17:21;27.70;84.30
10046;DHT22;5063;50.878;4.742;2023-06-05T09:19:48;26.90;85.00
10046;DHT22;5063;50.878;4.742;2023-06-05T09:22:14;27.60;86.00
10046;DHT22;5063;50.878;4.742;2023-06-05T09:24:41;28.00;84.30
10046;DHT22;5063;50.878;4.742;2023-06-05T09:27:09;28.00;81.30
10046;DHT22;5063;50.878;4.742;2023-06-05T09:29:40;28.10;81.20
10046;DHT22;5063;50.878;4.742;2023-06-05T09:32:08;27.80;82.90
10046;DHT22;5063;50.878;4.742;2023-06-05T09:34:36;27.90;84.00
10046;DHT22;5063;50.878;4.742;2023-06-05T09:37:04;27.60;82.30
10046;DHT22;5063;50.878;4.742;2023-06-05T09:39:32;27.00;82.90
10046;DHT22;5063;50.878;4.742;2023-06-05T09:41:58;26.50;85.20
10046;DHT22;5063;50.878;4.742;2023-06-05T09:44:25;26.00;86.50
10046;DHT22;5063;50.878;4.742;2023-06-05T09:46:59;25.00;90.20
10046;DHT22;5063;50.878;4.742;2023-06-05T09:49:30;24.20;90.40
10046;DHT22;5063;50.878;4.742;2023-06-05T09:51:58;23.70;91.10
10046;DHT22;5063;50.878;4.742;2023-06-05T09:54:30;23.30;92.30
10046;DHT22;5063;50.878;4.742;2023-06-05T09:57:01;23.10;93.00
10046;DHT22;5063;50.878;4.742;2023-06-05T09:59:29;23.10;93.90
10046;DHT22;5063;50.878;4.742;2023-06-05T10:01:58;23.10;95.10
10046;DHT22;5063;50.878;4.742;2023-06-05T10:04:27;23.10;95.50
10046;DHT22;5063;50.878;4.742;2023-06-05T10:06:59;23.20;95.10
10046;DHT22;5063;50.878;4.742;2023-06-05T10:09:25;23.20;95.50
10046;DHT22;5063;50.878;4.742;2023-06-05T10:11:51;22.80;96.40
10046;DHT22;5063;50.878;4.742;2023-06-05T10:14:21;22.80;95.90
10046;DHT22;5063;50.878;4.742;2023-06-05T10:16:49;22.90;96.60
10046;DHT22;5063;50.878;4.742;2023-06-05T10:19:18;23.00;95.90
10046;DHT22;5063;50.878;4.742;2023-06-05T10:21:48;22.80;95.80
10046;DHT22;5063;50.878;4.742;2023-06-05T10:32:46;22.50;96.90
10046;DHT22;5063;50.878;4.742;2023-06-05T10:40:57;23.00;97.30
10046;DHT22;5063;50.878;4.742;2023-06-05T10:43:46;23.00;97.10
10046;DHT22;5063;50.878;4.742;2023-06-05T10:46:29;22.90;97.10
10046;DHT22;5063;50.878;4.742;2023-06-05T10:51:37;23.30;96.90
10046;DHT22;5063;50.878;4.742;2023-06-05T10:54:04;23.20;95.90
10046;DHT22;5063;50.878;4.742;2023-06-05T10:59:17;23.50;96.50
10046;DHT22;5063;50.878;4.742;2023-06-05T11:07:22;23.60;95.90
10046;DHT22;5063;50.878;4.742;2023-06-05T11:15:03;24.20;94.80
10046;DHT22;5063;50.878;4.742;2023-06-05T11:17:48;24.00;94.60
10046;DHT22;5063;50.878;4.742;2023-06-05T11:28:03;23.80;94.30
10046;DHT22;5063;50.878;4.742;2023-06-05T11:30:34;23.80;95.00
10046;DHT22;5063;50.878;4.742;2023-06-05T11:33:10;23.90;95.10
10046;DHT22;5063;50.878;4.742;2023-06-05T11:35:42;23.80;94.90
10046;DHT22;5063;50.878;4.742;2023-06-05T11:40:35;24.20;94.90
10046;DHT22;5063;50.878;4.742;2023-06-05T11:43:06;24.10;93.80
10046;DHT22;5063;50.878;4.742;2023-06-05T11:45:39;23.70;93.60
10046;DHT22;5063;50.878;4.742;2023-06-05T11:48:10;23.90;93.80
10046;DHT22;5063;50.878;4.742;2023-06-05T11:50:51;24.20;94.60
10046;DHT22;5063;50.878;4.742;2023-06-05T11:53:17;24.40;92.70
10046;DHT22;5063;50.878;4.742;2023-06-05T11:55:43;24.30;91.90
10046;DHT22;5063;50.878;4.742;2023-06-05T11:58:26;24.50;92.30
10046;DHT22;5063;50.878;4.742;2023-06-05T12:03:41;24.50;92.90
10046;DHT22;5063;50.878;4.742;2023-06-05T12:06:07;24.70;92.00
10046;DHT22;5063;50.878;4.742;2023-06-05T12:08:34;24.60;90.10
10046;DHT22;5063;50.878;4.742;2023-06-05T12:11:02;24.40;90.70
10046;DHT22;5063;50.878;4.742;2023-06-05T12:13:56;24.50;90.90
10046;DHT22;5063;50.878;4.742;2023-06-05T12:18:58;24.90;90.20
10046;DHT22;5063;50.878;4.742;2023-06-05T12:21:26;24.70;88.50
10046;DHT22;5063;50.878;4.742;2023-06-05T12:24:00;24.90;90.30
10046;DHT22;5063;50.878;4.742;2023-06-05T12:26:27;24.70;90.50
10046;DHT22;5063;50.878;4.742;2023-06-05T12:29:07;24.60;88.90
10046;DHT22;5063;50.878;4.742;2023-06-05T12:31:34;25.00;89.10
10046;DHT22;5063;50.878;4.742;2023-06-05T12:34:01;25.20;88.80
10046;DHT22;5063;50.878;4.742;2023-06-05T12:36:27;25.10;87.40
10046;DHT22;5063;50.878;4.742;2023-06-05T12:38:54;25.00;87.30
10046;DHT22;5063;50.878;4.742;2023-06-05T12:41:20;25.10;86.30
10046;DHT22;5063;50.878;4.742;2023-06-05T12:44:01;24.80;87.40
10046;DHT22;5063;50.878;4.742;2023-06-05T12:46:27;25.00;86.80
10046;DHT22;5063;50.878;4.742;2023-06-05T12:48:53;25.30;87.90
10046;DHT22;5063;50.878;4.742;2023-06-05T12:51:19;25.40;88.60
10046;DHT22;5063;50.878;4.742;2023-06-05T12:53:46;25.60;84.80
10046;DHT22;5063;50.878;4.742;2023-06-05T12:56:12;25.60;82.90
10046;DHT22;5063;50.878;4.742;2023-06-05T12:58:37;25.10;85.70
10046;DHT22;5063;50.878;4.742;2023-06-05T13:01:03;25.10;86.00
10046;DHT22;5063;50.878;4.742;2023-06-05T13:03:29;25.00;85.20
10046;DHT22;5063;50.878;4.742;2023-06-05T13:05:55;24.90;85.90
10046;DHT22;5063;50.878;4.742;2023-06-05T13:08:21;25.00;85.60
10046;DHT22;5063;50.878;4.742;2023-06-05T13:10:47;24.90;85.60
10046;DHT22;5063;50.878;4.742;2023-06-05T13:13:12;25.20;85.40
10046;DHT22;5063;50.878;4.742;2023-06-05T13:15:39;25.40;87.80
10046;DHT22;5063;50.878;4.742;2023-06-05T13:18:05;25.70;85.50
10046;DHT22;5063;50.878;4.742;2023-06-05T13:20:31;25.90;87.20
10046;DHT22;5063;50.878;4.742;2023-06-05T13:22:56;25.90;84.90
10046;DHT22;5063;50.878;4.742;2023-06-05T13:25:22;25.80;83.80
10046;DHT22;5063;50.878;4.742;2023-06-05T13:27:48;25.60;82.20
10046;DHT22;5063;50.878;4.742;2023-06-05T13:30:14;25.40;84.40
10046;DHT22;5063;50.878;4.742;2023-06-05T13:32:40;25.20;83.20
10046;DHT22;5063;50.878;4.742;2023-06-05T13:35:07;25.60;84.70
10046;DHT22;5063;50.878;4.742;2023-06-05T13:37:33;25.40;85.40
10046;DHT22;5063;50.878;4.742;2023-06-05T13:39:59;25.60;85.90
10046;DHT22;5063;50.878;4.742;2023-06-05T13:42:25;25.80;84.10
10046;DHT22;5063;50.878;4.742;2023-06-05T13:44:50;25.90;85.00
10046;DHT22;5063;50.878;4.742;2023-06-05T13:47:16;26.20;86.50
10046;DHT22;5063;50.878;4.742;2023-06-05T13:49:42;26.50;84.10
10046;DHT22;5063;50.878;4.742;2023-06-05T13:52:08;26.40;83.50
10046;DHT22;5063;50.878;4.742;2023-06-05T13:54:33;26.20;79.90
10046;DHT22;5063;50.878;4.742;2023-06-05T13:56:59;26.10;82.50
10046;DHT22;5063;50.878;4.742;2023-06-05T13:59:25;26.00;81.00
10046;DHT22;5063;50.878;4.742;2023-06-05T14:01:51;26.10;83.80
10046;DHT22;5063;50.878;4.742;2023-06-05T14:04:16;26.10;83.10
10046;DHT22;5063;50.878;4.742;2023-06-05T14:06:42;26.00;81.90
10046;DHT22;5063;50.878;4.742;2023-06-05T14:09:08;26.00;81.00
10046;DHT22;5063;50.878;4.742;2023-06-05T14:11:34;26.30;81.80
10046;DHT22;5063;50.878;4.742;2023-06-05T14:14:00;26.40;78.30
10046;DHT22;5063;50.878;4.742;2023-06-05T14:16:27;26.20;80.00
10046;DHT22;5063;50.878;4.742;2023-06-05T14:18:52;26.10;81.50
10046;DHT22;5063;50.878;4.742;2023-06-05T14:21:18;26.00;81.00
10046;DHT22;5063;50.878;4.742;2023-06-05T14:23:44;25.90;80.90
10046;DHT22;5063;50.878;4.742;2023-06-05T14:26:10;25.90;79.80
10046;DHT22;5063;50.878;4.742;2023-06-05T14:28:36;25.80;82.00
10046;DHT22;5063;50.878;4.742;2023-06-05T14:31:02;26.00;81.40
10046;DHT22;5063;50.878;4.742;2023-06-05T14:33:28;26.20;82.00
10046;DHT22;5063;50.878;4.742;2023-06-05T14:35:54;26.30;82.30
10046;DHT22;5063;50.878;4.742;2023-06-05T14:38:20;26.50;81.80
10046;DHT22;5063;50.878;4.742;2023-06-05T14:40:46;26.60;80.40
10046;DHT22;5063;50.878;4.742;2023-06-05T14:43:15;26.30;78.60
10046;DHT22;5063;50.878;4.742;2023-06-05T14:45:41;26.20;78.70
10046;DHT22;5063;50.878;4.742;2023-06-05T14:48:08;26.50;77.20
10046;DHT22;5063;50.878;4.742;2023-06-05T14:50:36;26.60;77.90
10046;DHT22;5063;50.878;4.742;2023-06-05T14:53:02;26.80;77.90
10046;DHT22;5063;50.878;4.742;2023-06-05T14:55:27;27.10;79.10
10046;DHT22;5063;50.878;4.742;2023-06-05T14:57:53;27.40;79.60
10046;DHT22;5063;50.878;4.742;2023-06-05T15:00:19;27.40;78.90
10046;DHT22;5063;50.878;4.742;2023-06-05T15:02:45;27.30;77.20
10046;DHT22;5063;50.878;4.742;2023-06-05T15:05:11;27.00;77.90
10046;DHT22;5063;50.878;4.742;2023-06-05T15:07:38;27.40;80.20
10046;DHT22;5063;50.878;4.742;2023-06-05T15:10:05;27.10;77.70
10046;DHT22;5063;50.878;4.742;2023-06-05T15:12:31;27.00;76.00
10046;DHT22;5063;50.878;4.742;2023-06-05T15:14:57;26.70;77.50
10046;DHT22;5063;50.878;4.742;2023-06-05T15:17:23;26.70;76.30
10046;DHT22;5063;50.878;4.742;2023-06-05T15:19:48;26.90;74.50
10046;DHT22;5063;50.878;4.742;2023-06-05T15:22:14;26.90;75.60
10046;DHT22;5063;50.878;4.742;2023-06-05T15:24:40;26.70;74.50
10046;DHT22;5063;50.878;4.742;2023-06-05T15:27:06;26.90;75.90
10046;DHT22;5063;50.878;4.742;2023-06-05T15:29:33;27.10;76.30
10046;DHT22;5063;50.878;4.742;2023-06-05T15:31:59;27.50;76.60
10046;DHT22;5063;50.878;4.742;2023-06-05T15:34:25;27.90;76.50
10046;DHT22;5063;50.878;4.742;2023-06-05T15:36:50;27.80;75.20
10046;DHT22;5063;50.878;4.742;2023-06-05T15:39:16;27.70;74.30
10046;DHT22;5063;50.878;4.742;2023-06-05T15:41:42;27.80;73.80
10046;DHT22;5063;50.878;4.742;2023-06-05T15:44:08;27.20;75.60
10046;DHT22;5063;50.878;4.742;2023-06-05T15:46:35;27.30;74.20
10046;DHT22;5063;50.878;4.742;2023-06-05T15:49:01;27.40;75.60
10046;DHT22;5063;50.878;4.742;2023-06-05T15:51:27;27.90;76.10
10046;DHT22;5063;50.878;4.742;2023-06-05T15:53:54;27.40;73.20
10046;DHT22;5063;50.878;4.742;2023-06-05T15:56:22;26.60;75.00
10046;DHT22;5063;50.878;4.742;2023-06-05T15:58:48;26.30;76.60
10046;DHT22;5063;50.878;4.742;2023-06-05T16:01:13;26.50;76.40
10046;DHT22;5063;50.878;4.742;2023-06-05T16:03:39;27.00;76.00
10046;DHT22;5063;50.878;4.742;2023-06-05T16:06:05;27.40;76.20
10046;DHT22;5063;50.878;4.742;2023-06-05T16:08:31;27.90;75.30
10046;DHT22;5063;50.878;4.742;2023-06-05T16:10:58;28.00;76.60
10046;DHT22;5063;50.878;4.742;2023-06-05T16:13:27;28.10;73.00
10046;DHT22;5063;50.878;4.742;2023-06-05T16:15:53;28.00;73.70
10046;DHT22;5063;50.878;4.742;2023-06-05T16:18:19;28.00;73.50
10046;DHT22;5063;50.878;4.742;2023-06-05T16:20:45;28.10;73.60
10046;DHT22;5063;50.878;4.742;2023-06-05T16:23:10;27.90;72.50
10046;DHT22;5063;50.878;4.742;2023-06-05T16:25:36;27.80;72.50
10046;DHT22;5063;50.878;4.742;2023-06-05T16:28:03;27.50;73.80
10046;DHT22;5063;50.878;4.742;2023-06-05T16:30:28;27.50;74.00
10046;DHT22;5063;50.878;4.742;2023-06-05T16:32:54;27.60;75.40
10046;DHT22;5063;50.878;4.742;2023-06-05T16:35:20;27.70;76.00